Voinjama Airport

Jump to: basic info | weather | comments

Related pages: nearby airports | nearby navaids | notams | map

Basic information (top)

Codes: VOI GLVA
Location: lon 8.400000, lat -9.767000, elev 1,400 ft / 427 m msl
Status: small_airport
Scheduled airline service: no
Links: Wikipedia Mobile

Weather (top)

Current conditions for Man Airport 146nm (271km) ESE (rec'd 2013/11/21 04:00Z):

DIMN 210400Z NOL

Airport forecast for Lungi International Airport 204nm (378km) W (rec'd 2014/04/23 18:00Z):

TAF GFLL 231600Z 2318/2424 27009KT 9999 BKN012 FEW027CB 
      BECMG 2300/2402 26008KT 8000 -TSRA BKN011 PROB30 EMPO 2404/2407 13010KT 7000 -RA SCT012 
      BECMG 2408/2410 26012KT 9999 FEW026CB 
     FM241300 30008KT 9999 SCT013

Latest comments (top)

No comments yet for Voinjama Airport

More... (top)

See also NOTAMs and nearby airports and navaids, or visit the Voinjama Airport page at the main OurAirports website..